Time;durP1;ratioP1;P1;durP2;ratioP2;P2;SDS_P1;SDS_P2;PMS_P1;PMS_P2;Temp;Humidity;BMP_temperature;BMP_pressure;BME280_temperature;BME280_humidity;BME280_pressure;Samples;Min_cycle;Max_cycle;Signal;HPM_P1;HPM_P2
2023/12/05 00:02:37;;;;;;;115.63;107.18;;;0.80;99.90;;;;;;12460332;28;20502;-76
2023/12/05 00:08:39;;;;;;;115.85;107.43;;;0.80;99.90;;;;;;12470576;28;20115;-76
2023/12/05 00:14:42;;;;;;;115.53;107.13;;;0.70;99.90;;;;;;12502269;28;20056;-75
2023/12/05 00:20:44;;;;;;;118.13;109.60;;;0.60;99.90;;;;;;12500184;28;20073;-75
2023/12/05 00:26:45;;;;;;;117.97;109.53;;;0.70;99.90;;;;;;12406265;28;20054;-75
2023/12/05 00:32:48;;;;;;;120.47;111.97;;;0.60;99.90;;;;;;12423564;28;20054;-75
2023/12/05 00:38:50;;;;;;;118.57;110.40;;;0.60;99.90;;;;;;12490886;28;20046;-74
2023/12/05 00:44:52;;;;;;;116.85;108.55;;;0.60;99.90;;;;;;12482790;28;20074;-77
2023/12/05 00:50:55;;;;;;;108.07;100.15;;;0.70;99.90;;;;;;12478377;28;20054;-76
2023/12/05 00:56:56;;;;;;;118.03;109.82;;;0.70;99.90;;;;;;12482183;28;20052;-80
2023/12/05 01:02:59;;;;;;;115.70;107.45;;;0.80;99.90;;;;;;12541915;28;20046;-76
2023/12/05 01:09:01;;;;;;;115.57;107.32;;;0.80;99.90;;;;;;12527473;28;20065;-76
2023/12/05 01:15:04;;;;;;;119.60;111.07;;;0.80;99.90;;;;;;12503469;28;20045;-76
2023/12/05 01:21:07;;;;;;;122.57;113.93;;;0.80;99.90;;;;;;12534454;28;20116;-76
2023/12/05 01:27:08;;;;;;;128.95;119.80;;;0.70;99.90;;;;;;12551913;28;20050;-78
2023/12/05 01:33:10;;;;;;;131.23;121.72;;;0.70;99.90;;;;;;12468290;28;20137;-79
2023/12/05 01:39:13;;;;;;;137.00;126.85;;;0.60;99.90;;;;;;12473477;28;20034;-79
2023/12/05 01:45:15;;;;;;;140.40;129.95;;;0.60;99.90;;;;;;12513988;28;20081;-77
2023/12/05 01:51:17;;;;;;;139.55;129.18;;;0.50;99.90;;;;;;12511299;28;20099;-77
2023/12/05 01:57:20;;;;;;;142.07;131.48;;;0.50;99.90;;;;;;12503681;28;20050;-77
2023/12/05 02:03:22;;;;;;;130.80;121.30;;;0.60;99.90;;;;;;12437553;28;20053;-76
2023/12/05 02:09:25;;;;;;;127.45;118.35;;;0.60;99.90;;;;;;12497402;28;20552;-77
2023/12/05 02:15:27;;;;;;;119.93;111.15;;;0.70;99.90;;;;;;12504584;28;20050;-77
2023/12/05 02:21:33;;;;;;;117.25;108.90;;;0.70;99.90;;;;;;12435935;28;20038;-76
2023/12/05 02:27:41;;;;;;;113.20;105.07;;;0.80;99.90;;;;;;12493883;28;20174;-77
2023/12/05 02:33:44;;;;;;;115.30;106.80;;;0.80;99.90;;;;;;12442256;28;20058;-75
2023/12/05 02:40:00;;;;;;;118.15;109.55;;;0.80;99.90;;;;;;12494371;28;20050;-76
2023/12/05 02:46:05;;;;;;;124.13;115.30;;;0.80;99.90;;;;;;12495778;28;20118;-76
2023/12/05 02:52:10;;;;;;;126.40;117.20;;;0.80;99.90;;;;;;12482085;28;20061;-77
2023/12/05 02:58:13;;;;;;;130.43;121.07;;;0.70;99.90;;;;;;12485186;28;20415;-78
2023/12/05 03:04:15;;;;;;;126.47;117.20;;;0.70;99.90;;;;;;12496545;28;20423;-78
2023/12/05 03:10:17;;;;;;;133.15;123.20;;;0.80;99.90;;;;;;12492858;28;20058;-76
2023/12/05 03:16:19;;;;;;;129.23;119.57;;;0.80;99.90;;;;;;12499652;28;20423;-76
2023/12/05 03:22:22;;;;;;;139.02;128.40;;;0.70;99.90;;;;;;12423662;28;20136;-77
2023/12/05 03:28:24;;;;;;;125.60;116.20;;;0.60;99.90;;;;;;12487246;28;20188;-76
2023/12/05 03:34:26;;;;;;;122.93;113.75;;;0.80;99.90;;;;;;12479473;28;20054;-76
2023/12/05 03:40:28;;;;;;;124.35;115.10;;;0.90;99.90;;;;;;12471643;28;20054;-75
2023/12/05 03:46:30;;;;;;;118.88;109.95;;;0.90;99.90;;;;;;12501730;28;20061;-76
2023/12/05 03:52:32;;;;;;;113.90;105.65;;;1.00;99.90;;;;;;12415976;28;20395;-75
2023/12/05 03:58:34;;;;;;;112.55;104.28;;;1.10;99.90;;;;;;12421941;28;20050;-76
2023/12/05 04:04:37;;;;;;;117.28;108.47;;;1.10;99.90;;;;;;12506164;28;20077;-76
2023/12/05 04:10:39;;;;;;;114.22;105.32;;;1.00;99.90;;;;;;12619707;28;20061;-76
2023/12/05 04:16:42;;;;;;;103.95;96.22;;;1.00;99.90;;;;;;12625063;28;20044;-75
2023/12/05 04:22:48;;;;;;;115.80;107.03;;;1.20;99.90;;;;;;12632540;28;20057;-75
2023/12/05 04:28:52;;;;;;;114.45;105.35;;;1.20;99.90;;;;;;12623937;28;20181;-76
2023/12/05 04:34:59;;;;;;;98.55;91.05;;;1.10;99.90;;;;;;12610817;28;20049;-76
2023/12/05 04:41:07;;;;;;;112.07;103.13;;;1.20;99.90;;;;;;12615496;28;20064;-76
2023/12/05 04:47:14;;;;;;;115.78;106.35;;;1.10;99.90;;;;;;12615536;28;20055;-76
2023/12/05 04:53:19;;;;;;;120.70;111.03;;;1.00;99.90;;;;;;12610712;28;20143;-77
2023/12/05 04:59:24;;;;;;;129.15;118.90;;;0.80;99.90;;;;;;12624267;28;20074;-76
2023/12/05 05:05:29;;;;;;;123.28;113.30;;;0.80;99.90;;;;;;12632181;28;20048;-75
2023/12/05 05:11:32;;;;;;;121.93;111.90;;;0.70;99.90;;;;;;12625351;28;20056;-76
2023/12/05 05:17:34;;;;;;;121.75;111.88;;;0.70;99.90;;;;;;12628827;28;20063;-75
2023/12/05 05:23:38;;;;;;;125.13;114.93;;;0.70;99.90;;;;;;12641089;28;20413;-75
2023/12/05 05:29:40;;;;;;;122.45;112.60;;;0.70;99.90;;;;;;12627266;28;20053;-76
2023/12/05 05:35:42;;;;;;;119.65;109.85;;;0.70;99.90;;;;;;12621455;28;20052;-75
2023/12/05 05:41:44;;;;;;;122.90;113.03;;;0.70;99.90;;;;;;12621085;28;20053;-76
2023/12/05 05:47:46;;;;;;;126.75;116.30;;;0.70;99.90;;;;;;12618835;28;20056;-76
2023/12/05 05:53:53;;;;;;;120.57;110.53;;;0.80;99.90;;;;;;12630909;28;20124;-76
2023/12/05 05:59:55;;;;;;;125.40;115.30;;;0.70;99.90;;;;;;12619357;28;20080;-75
2023/12/05 06:06:00;;;;;;;123.32;113.03;;;0.70;99.90;;;;;;12622510;28;20049;-77
2023/12/05 06:12:04;;;;;;;116.55;106.88;;;0.70;99.90;;;;;;12423740;28;20500;-76
2023/12/05 06:18:07;;;;;;;111.83;102.40;;;0.80;99.90;;;;;;12488719;28;20502;-76
2023/12/05 06:24:09;;;;;;;115.55;105.63;;;0.80;99.90;;;;;;12480307;28;20056;-76
2023/12/05 06:30:12;;;;;;;116.40;106.50;;;0.80;99.90;;;;;;12493015;28;20078;-76
2023/12/05 06:36:25;;;;;;;114.38;104.70;;;0.80;99.90;;;;;;12490562;28;20430;-76
2023/12/05 06:42:27;;;;;;;110.32;100.95;;;0.80;99.90;;;;;;12412255;28;20074;-79
2023/12/05 06:48:30;;;;;;;122.50;112.30;;;0.80;99.90;;;;;;12482413;28;20053;-76
2023/12/05 06:54:32;;;;;;;124.50;114.35;;;0.90;99.90;;;;;;12414213;28;20070;-79
2023/12/05 07:00:34;;;;;;;125.80;115.43;;;0.80;99.90;;;;;;12433565;28;20058;-76
2023/12/05 07:06:36;;;;;;;121.50;111.57;;;0.90;99.90;;;;;;12486570;28;20523;-77
2023/12/05 07:12:38;;;;;;;124.50;114.32;;;0.90;99.90;;;;;;12418004;28;20510;-78
2023/12/05 07:18:40;;;;;;;133.68;122.97;;;0.90;99.90;;;;;;12486765;28;20523;-77
2023/12/05 07:24:43;;;;;;;134.13;123.63;;;0.90;99.90;;;;;;12412364;28;20585;-77
2023/12/05 07:30:45;;;;;;;136.68;125.78;;;0.90;99.90;;;;;;12415703;28;20054;-76
2023/12/05 07:36:47;;;;;;;144.82;133.60;;;1.00;99.90;;;;;;12477751;28;20460;-78
2023/12/05 07:42:49;;;;;;;139.10;128.38;;;1.00;99.90;;;;;;12481196;28;20050;-78
2023/12/05 07:48:51;;;;;;;144.18;133.20;;;1.00;99.90;;;;;;12425357;28;20597;-78
2023/12/05 07:54:55;;;;;;;155.38;143.35;;;1.00;99.90;;;;;;12408757;28;20620;-79
2023/12/05 08:00:57;;;;;;;157.38;145.48;;;1.00;99.90;;;;;;12478794;28;20062;-79
2023/12/05 08:07:01;;;;;;;159.50;147.40;;;1.10;99.90;;;;;;12443541;28;20202;-78
2023/12/05 08:13:03;;;;;;;167.75;154.98;;;1.10;99.90;;;;;;12462884;28;20404;-79
2023/12/05 08:19:05;;;;;;;163.10;150.60;;;1.10;99.90;;;;;;12474468;28;20050;-79
2023/12/05 08:25:10;;;;;;;152.43;141.13;;;1.20;99.90;;;;;;12472133;28;20053;-80
2023/12/05 08:31:12;;;;;;;150.80;139.23;;;1.20;99.90;;;;;;12405232;28;20054;-80
2023/12/05 08:37:14;;;;;;;155.68;143.48;;;1.30;99.90;;;;;;12510230;28;20168;-80
2023/12/05 08:43:16;;;;;;;146.88;135.65;;;1.40;99.90;;;;;;12465031;28;20714;-80
2023/12/05 08:49:18;;;;;;;142.70;131.43;;;1.40;99.90;;;;;;12412189;28;20053;-80
2023/12/05 08:55:20;;;;;;;145.38;134.07;;;1.40;99.90;;;;;;12486842;28;20057;-80
2023/12/05 09:01:23;;;;;;;157.55;145.18;;;1.40;99.90;;;;;;12502410;28;20054;-80
2023/12/05 09:07:25;;;;;;;153.63;141.52;;;1.50;99.90;;;;;;12500277;28;20579;-81
2023/12/05 09:13:27;;;;;;;155.20;142.93;;;1.60;99.90;;;;;;12512307;28;20046;-81
2023/12/05 09:19:30;;;;;;;160.15;147.85;;;1.60;99.90;;;;;;12426725;28;20049;-80
2023/12/05 09:25:32;;;;;;;159.30;146.98;;;1.70;99.90;;;;;;12426396;28;20386;-80
2023/12/05 09:31:34;;;;;;;150.02;138.35;;;1.70;99.90;;;;;;12487486;28;20119;-80
2023/12/05 09:37:36;;;;;;;158.82;146.55;;;1.80;99.90;;;;;;12423239;28;20073;-80
2023/12/05 09:43:39;;;;;;;144.77;133.55;;;1.90;99.90;;;;;;12464373;28;20055;-81
2023/12/05 09:49:42;;;;;;;142.63;131.32;;;1.90;99.90;;;;;;12506944;28;20050;-81
2023/12/05 09:55:45;;;;;;;141.13;130.00;;;2.00;99.90;;;;;;12479444;28;20046;-80
2023/12/05 10:01:48;;;;;;;151.48;139.85;;;2.00;99.90;;;;;;12485726;28;20403;-81
2023/12/05 10:07:50;;;;;;;149.45;137.55;;;2.10;99.90;;;;;;12481519;28;20061;-80
2023/12/05 10:13:53;;;;;;;157.45;144.82;;;2.20;99.90;;;;;;12419721;28;20042;-81
2023/12/05 10:19:55;;;;;;;149.43;137.60;;;2.20;99.90;;;;;;12411683;28;20054;-82
2023/12/05 10:25:57;;;;;;;146.43;135.05;;;2.30;99.90;;;;;;12428579;28;20069;-82
2023/12/05 10:31:58;;;;;;;143.27;132.30;;;2.50;99.90;;;;;;12505613;28;20046;-81
2023/12/05 10:38:19;;;;;;;137.50;127.07;;;2.60;99.90;;;;;;12424047;28;20053;-81
2023/12/05 10:44:21;;;;;;;134.50;124.22;;;2.80;99.90;;;;;;12500443;28;20054;-81
2023/12/05 10:50:23;;;;;;;134.25;124.15;;;2.80;99.90;;;;;;12436920;28;20046;-81
2023/12/05 10:56:26;;;;;;;127.90;117.95;;;3.00;99.90;;;;;;12499824;28;20131;-81
2023/12/05 11:02:28;;;;;;;128.38;118.07;;;3.10;99.90;;;;;;12475608;28;20076;-81
2023/12/05 11:08:32;;;;;;;135.35;125.00;;;3.20;99.90;;;;;;12482341;28;20057;-80
2023/12/05 11:14:40;;;;;;;127.22;117.25;;;3.20;99.90;;;;;;12482374;28;20042;-80
2023/12/05 11:21:04;;;;;;;122.63;113.15;;;3.20;99.90;;;;;;12478213;28;20492;-79
2023/12/05 11:27:32;;;;;;;120.18;110.63;;;3.30;99.90;;;;;;12444470;28;20061;-80
2023/12/05 11:33:56;;;;;;;116.22;106.88;;;3.30;99.90;;;;;;12417867;28;20077;-80
2023/12/05 11:39:59;;;;;;;119.05;109.63;;;3.40;99.90;;;;;;12411833;28;20085;-80
2023/12/05 11:46:01;;;;;;;114.13;104.80;;;3.40;99.90;;;;;;12446609;28;20054;-81
2023/12/05 11:52:09;;;;;;;113.65;104.55;;;3.40;99.90;;;;;;12488521;28;20046;-80
2023/12/05 11:58:31;;;;;;;117.50;108.15;;;3.50;99.90;;;;;;12478822;28;20178;-80
2023/12/05 12:04:33;;;;;;;118.57;109.20;;;3.60;99.90;;;;;;12412114;28;20043;-80
2023/12/05 12:10:35;;;;;;;116.18;106.78;;;3.60;99.90;;;;;;12398451;28;20488;-81
2023/12/05 12:16:38;;;;;;;124.07;114.38;;;3.70;99.90;;;;;;12410789;28;20641;-82
2023/12/05 12:22:48;;;;;;;117.95;108.43;;;3.80;99.90;;;;;;12472612;28;20514;-81
2023/12/05 12:28:50;;;;;;;118.63;109.32;;;3.80;99.90;;;;;;12480819;28;20042;-81
2023/12/05 12:34:52;;;;;;;117.28;108.03;;;3.90;99.90;;;;;;12438484;28;20057;-82
2023/12/05 12:40:54;;;;;;;118.85;109.45;;;3.90;99.90;;;;;;12433447;28;20530;-82
2023/12/05 12:46:56;;;;;;;115.15;106.00;;;3.90;99.90;;;;;;12520272;28;20068;-83
2023/12/05 12:53:01;;;;;;;114.30;105.32;;;3.90;99.90;;;;;;12527561;28;20064;-84
2023/12/05 12:59:04;;;;;;;112.03;103.32;;;3.90;99.90;;;;;;12525424;28;20057;-84
2023/12/05 13:05:06;;;;;;;113.35;104.63;;;3.90;99.90;;;;;;12465877;28;20411;-83
2023/12/05 13:11:09;;;;;;;114.18;105.18;;;3.90;99.90;;;;;;12542938;28;20061;-84
2023/12/05 13:17:11;;;;;;;115.03;105.90;;;3.90;99.90;;;;;;12466056;28;20060;-84
2023/12/05 13:23:13;;;;;;;111.68;102.93;;;3.90;99.90;;;;;;12471134;28;20058;-85
2023/12/05 13:29:15;;;;;;;113.93;105.22;;;4.00;99.90;;;;;;12477038;28;20129;-85
2023/12/05 13:35:17;;;;;;;113.18;104.63;;;4.00;99.90;;;;;;12471724;28;20034;-84
2023/12/05 13:41:19;;;;;;;113.95;105.07;;;4.00;99.90;;;;;;12474183;28;20080;-85
2023/12/05 13:47:22;;;;;;;110.93;102.32;;;3.90;99.90;;;;;;12524311;28;20517;-85
2023/12/05 13:53:24;;;;;;;113.95;105.32;;;3.90;99.90;;;;;;12499705;28;20046;-85
2023/12/05 13:59:26;;;;;;;105.25;97.30;;;4.00;99.90;;;;;;12532065;28;20052;-84
2023/12/05 14:05:28;;;;;;;108.93;100.53;;;4.10;99.90;;;;;;12524460;28;20046;-84
2023/12/05 14:11:30;;;;;;;112.20;103.65;;;4.20;99.90;;;;;;12664693;28;20056;-84
2023/12/05 14:17:32;;;;;;;112.47;104.03;;;4.10;99.90;;;;;;12648130;28;20047;-84
2023/12/05 14:23:34;;;;;;;116.80;108.03;;;4.00;99.90;;;;;;12664477;28;20046;-84
2023/12/05 14:29:36;;;;;;;116.93;108.32;;;4.00;99.90;;;;;;12650115;28;20037;-83
2023/12/05 14:35:39;;;;;;;117.35;108.60;;;3.90;99.90;;;;;;12646697;28;20055;-84
2023/12/05 14:41:41;;;;;;;112.82;104.50;;;3.90;99.90;;;;;;12666362;28;20098;-84
2023/12/05 14:47:43;;;;;;;112.35;104.10;;;3.80;99.90;;;;;;12653285;28;20060;-83
2023/12/05 14:53:45;;;;;;;107.75;99.88;;;3.80;99.90;;;;;;12636642;28;20115;-83
2023/12/05 14:59:48;;;;;;;104.93;97.13;;;3.80;99.90;;;;;;12638444;28;20051;-83
2023/12/05 15:05:50;;;;;;;103.38;95.60;;;3.80;99.90;;;;;;12635843;28;20064;-82
2023/12/05 15:11:52;;;;;;;105.57;97.85;;;3.90;99.90;;;;;;12432596;28;20062;-82
2023/12/05 15:17:55;;;;;;;106.28;98.32;;;3.90;99.90;;;;;;12409889;28;20046;-83
2023/12/05 15:23:57;;;;;;;111.10;102.90;;;4.00;99.90;;;;;;12485866;28;20061;-81
2023/12/05 15:29:59;;;;;;;112.45;104.13;;;3.80;99.90;;;;;;12491446;28;20066;-82
2023/12/05 15:36:01;;;;;;;105.65;97.88;;;3.80;99.90;;;;;;12496942;28;20526;-81
2023/12/05 15:42:03;;;;;;;107.43;99.32;;;3.80;99.90;;;;;;12424404;28;20053;-81
2023/12/05 15:48:07;;;;;;;108.07;100.05;;;3.80;99.90;;;;;;12523999;28;20042;-82
2023/12/05 15:54:29;;;;;;;106.40;98.38;;;3.80;99.90;;;;;;12428097;28;20050;-81
2023/12/05 16:00:31;;;;;;;104.53;96.55;;;3.80;99.90;;;;;;12509305;28;20045;-81
2023/12/05 16:06:33;;;;;;;101.50;93.85;;;3.70;99.90;;;;;;12468775;28;20058;-82
2023/12/05 16:12:35;;;;;;;105.68;97.60;;;3.80;99.90;;;;;;12458144;28;20042;-81
2023/12/05 16:18:37;;;;;;;103.72;95.63;;;3.80;99.90;;;;;;12517207;28;20054;-82
2023/12/05 16:24:39;;;;;;;107.00;98.88;;;3.80;99.90;;;;;;12526249;28;20194;-83
2023/12/05 16:30:41;;;;;;;103.53;95.63;;;3.70;99.90;;;;;;12527632;28;20098;-82
2023/12/05 16:36:43;;;;;;;104.40;96.20;;;3.70;99.90;;;;;;12507656;28;20050;-81
2023/12/05 16:42:45;;;;;;;107.57;99.22;;;3.70;99.90;;;;;;12434811;28;20050;-80
2023/12/05 16:48:47;;;;;;;106.60;98.47;;;3.70;99.90;;;;;;12496030;28;21015;-80
2023/12/05 16:54:49;;;;;;;106.22;98.22;;;3.80;99.90;;;;;;12426946;28;20046;-81
2023/12/05 17:00:51;;;;;;;111.05;102.60;;;3.80;99.90;;;;;;12418220;28;20046;-81
2023/12/05 17:06:54;;;;;;;108.68;100.55;;;3.80;99.90;;;;;;12472909;28;20089;-80
2023/12/05 17:12:56;;;;;;;109.43;101.03;;;3.80;99.90;;;;;;12430962;28;20516;-81
2023/12/05 17:18:58;;;;;;;111.97;103.47;;;3.90;99.90;;;;;;12437211;28;20055;-82
2023/12/05 17:25:01;;;;;;;113.03;104.43;;;3.80;99.90;;;;;;12493251;28;20175;-82
2023/12/05 17:31:04;;;;;;;116.38;107.78;;;3.80;99.90;;;;;;12503890;28;20042;-82
2023/12/05 17:37:06;;;;;;;116.65;107.75;;;3.80;99.90;;;;;;12504035;28;20078;-82
2023/12/05 17:43:08;;;;;;;115.10;106.43;;;3.80;99.90;;;;;;12474532;28;20054;-82
2023/12/05 17:49:10;;;;;;;116.63;107.57;;;3.80;99.90;;;;;;12425957;28;20102;-82
2023/12/05 17:55:13;;;;;;;121.45;112.10;;;3.80;99.90;;;;;;12496155;28;20054;-82
2023/12/05 18:01:15;;;;;;;126.00;116.43;;;3.90;99.90;;;;;;12423798;28;20053;-83
2023/12/05 18:07:17;;;;;;;127.40;118.00;;;3.80;99.90;;;;;;12492784;28;20057;-82
2023/12/05 18:13:39;;;;;;;122.63;113.30;;;3.80;99.90;;;;;;12491019;28;20050;-82
2023/12/05 18:19:43;;;;;;;124.45;114.97;;;3.80;99.90;;;;;;12422463;28;20146;-82
2023/12/05 18:25:49;;;;;;;127.55;118.20;;;3.90;99.90;;;;;;12504641;28;20058;-82
2023/12/05 18:31:51;;;;;;;123.00;113.65;;;3.90;99.90;;;;;;12506455;28;20425;-82
2023/12/05 18:37:53;;;;;;;124.20;115.20;;;3.90;99.90;;;;;;12428804;28;20058;-82
2023/12/05 18:43:58;;;;;;;121.70;112.47;;;3.90;99.90;;;;;;12418594;28;20519;-82
2023/12/05 18:50:01;;;;;;;121.07;112.05;;;3.90;99.90;;;;;;12424806;28;20061;-81
2023/12/05 18:56:03;;;;;;;118.60;109.90;;;3.90;99.90;;;;;;12462554;28;20100;-82
2023/12/05 19:02:05;;;;;;;117.97;109.10;;;3.90;99.90;;;;;;12512938;28;20057;-82
2023/12/05 19:08:07;;;;;;;116.20;107.53;;;4.00;99.90;;;;;;12423653;28;20058;-81
2023/12/05 19:14:09;;;;;;;119.35;110.45;;;4.00;99.90;;;;;;12457834;28;20050;-82
2023/12/05 19:20:11;;;;;;;125.20;115.70;;;4.00;99.90;;;;;;12541424;28;20040;-81
2023/12/05 19:26:26;;;;;;;128.27;118.72;;;3.90;99.90;;;;;;12502059;28;20511;-82
2023/12/05 19:32:28;;;;;;;124.95;115.72;;;3.90;99.90;;;;;;12474042;28;20042;-81
2023/12/05 19:38:30;;;;;;;126.38;116.95;;;3.90;99.90;;;;;;12417519;28;20073;-81
2023/12/05 19:44:32;;;;;;;135.32;125.13;;;3.90;99.90;;;;;;12451373;28;20046;-80
2023/12/05 19:50:34;;;;;;;139.23;128.90;;;3.80;99.90;;;;;;12481570;28;20046;-80
2023/12/05 19:56:36;;;;;;;135.30;124.97;;;3.80;99.90;;;;;;12474222;28;20050;-80
2023/12/05 20:02:39;;;;;;;141.15;130.63;;;3.70;99.90;;;;;;12469457;28;20052;-80
2023/12/05 20:08:41;;;;;;;145.60;134.85;;;3.70;99.90;;;;;;12479933;28;20066;-80
2023/12/05 20:14:42;;;;;;;142.52;132.07;;;3.70;99.90;;;;;;12485375;28;20049;-80
2023/12/05 20:20:44;;;;;;;144.18;133.75;;;3.70;99.90;;;;;;12516371;28;20129;-79
2023/12/05 20:26:46;;;;;;;143.70;133.15;;;3.60;99.90;;;;;;12476794;28;20046;-79
2023/12/05 20:32:48;;;;;;;142.02;131.65;;;3.70;99.90;;;;;;12488887;28;20047;-78
2023/12/05 20:38:50;;;;;;;146.75;136.00;;;3.60;99.90;;;;;;12490552;28;20068;-78
2023/12/05 20:44:52;;;;;;;148.90;137.88;;;3.60;99.90;;;;;;12487247;28;20046;-79
2023/12/05 20:50:54;;;;;;;149.60;138.40;;;3.60;99.90;;;;;;12425856;28;20437;-80
2023/12/05 20:56:56;;;;;;;151.68;140.45;;;3.50;99.90;;;;;;12492532;28;20499;-79
2023/12/05 21:02:57;;;;;;;157.27;145.88;;;3.50;99.90;;;;;;12488292;28;20085;-79
2023/12/05 21:08:59;;;;;;;152.30;141.23;;;3.50;99.90;;;;;;12425237;28;20097;-78
2023/12/05 21:15:14;;;;;;;162.70;151.15;;;3.60;99.90;;;;;;12457658;28;20054;-81
2023/12/05 21:21:17;;;;;;;170.07;157.77;;;3.60;99.90;;;;;;12493269;28;20102;-79
2023/12/05 21:27:19;;;;;;;172.13;159.70;;;3.40;99.90;;;;;;12424066;28;20042;-79
2023/12/05 21:33:22;;;;;;;158.52;146.88;;;3.20;99.90;;;;;;12404015;28;20480;-80
2023/12/05 21:39:30;;;;;;;153.77;142.35;;;2.90;99.90;;;;;;12492634;28;20044;-79
2023/12/05 21:45:33;;;;;;;158.05;146.25;;;2.70;99.90;;;;;;12479794;28;20053;-79
2023/12/05 21:51:36;;;;;;;161.05;148.98;;;2.70;99.90;;;;;;12407925;28;20038;-79
2023/12/05 21:57:38;;;;;;;156.45;144.65;;;2.60;99.90;;;;;;12479592;28;20050;-79
2023/12/05 22:03:41;;;;;;;159.98;148.07;;;2.50;99.90;;;;;;12452747;28;20049;-78
2023/12/05 22:09:44;;;;;;;155.65;144.05;;;2.30;99.90;;;;;;12504922;28;20046;-78
2023/12/05 22:15:46;;;;;;;158.60;146.80;;;2.20;99.90;;;;;;12515385;28;20038;-78
2023/12/05 22:21:48;;;;;;;162.88;150.77;;;2.20;99.90;;;;;;12445207;28;20099;-79
2023/12/05 22:27:50;;;;;;;156.88;145.15;;;2.10;99.90;;;;;;12518900;28;20068;-79
2023/12/05 22:33:52;;;;;;;143.05;132.23;;;2.10;99.90;;;;;;12507259;28;20138;-79
2023/12/05 22:39:54;;;;;;;143.85;133.00;;;2.20;99.90;;;;;;12500815;28;20184;-79
2023/12/05 22:45:57;;;;;;;145.02;134.10;;;2.00;99.90;;;;;;12506688;28;20141;-79
2023/12/05 22:51:59;;;;;;;140.25;129.77;;;1.90;99.90;;;;;;12500182;28;20050;-78
2023/12/05 22:58:01;;;;;;;135.40;125.40;;;1.80;99.90;;;;;;12507053;28;20061;-80
2023/12/05 23:04:03;;;;;;;130.50;120.85;;;1.70;99.90;;;;;;12477211;28;20041;-79
2023/12/05 23:10:06;;;;;;;133.00;123.32;;;1.70;99.90;;;;;;12449842;28;20046;-80
2023/12/05 23:16:08;;;;;;;134.13;124.35;;;1.60;99.90;;;;;;12498855;28;20129;-79
2023/12/05 23:22:10;;;;;;;138.93;128.73;;;1.60;99.90;;;;;;12489589;28;20053;-80
2023/12/05 23:28:12;;;;;;;138.35;128.07;;;1.60;99.90;;;;;;12506680;28;20080;-79
2023/12/05 23:34:22;;;;;;;140.20;130.00;;;1.60;99.90;;;;;;12445206;28;20074;-78
2023/12/05 23:40:24;;;;;;;144.27;133.70;;;1.60;99.90;;;;;;12498861;28;20056;-80
2023/12/05 23:46:26;;;;;;;147.68;136.88;;;1.60;99.90;;;;;;12444223;28;20503;-79
2023/12/05 23:52:28;;;;;;;145.00;134.43;;;1.50;99.90;;;;;;12508354;28;20046;-79
2023/12/05 23:58:31;;;;;;;145.15;134.20;;;1.40;99.90;;;;;;12506529;28;20055;-78
